createdAt,value
2022-08-26T05:30:56.549Z,18.10
2022-08-26T05:33:24.323Z,18.20
2022-08-26T05:35:51.848Z,18.40
2022-08-26T05:38:21.856Z,18.60
2022-08-26T05:40:52.738Z,18.70
2022-08-26T05:43:21.137Z,18.80
2022-08-26T05:45:50.416Z,18.70
2022-08-26T05:48:24.204Z,18.90
2022-08-26T05:50:53.269Z,19.00
2022-08-26T05:53:22.071Z,19.40
2022-08-26T05:55:53.148Z,20.20
2022-08-26T05:58:22.075Z,21.50
2022-08-26T06:01:01.705Z,23.20
2022-08-26T06:03:32.373Z,24.40
2022-08-26T06:06:03.010Z,25.90
2022-08-26T06:08:30.241Z,27.00
2022-08-26T06:11:01.579Z,27.50
2022-08-26T06:13:31.888Z,28.10
2022-08-26T06:16:00.315Z,29.20
2022-08-26T06:18:32.792Z,30.10
2022-08-26T06:21:00.703Z,30.90
2022-08-26T06:23:49.844Z,31.40
2022-08-26T06:26:17.560Z,31.60
2022-08-26T06:28:45.755Z,31.70
2022-08-26T06:31:13.963Z,31.40
2022-08-26T06:33:42.702Z,31.90
2022-08-26T06:36:15.053Z,32.30
2022-08-26T06:38:42.568Z,32.10
2022-08-26T06:41:11.442Z,32.50
2022-08-26T06:43:39.002Z,33.10
2022-08-26T06:46:13.210Z,33.50
2022-08-26T06:48:40.597Z,33.50
2022-08-26T06:51:13.806Z,32.60
2022-08-26T06:53:43.281Z,33.10
2022-08-26T06:56:11.914Z,32.90
2022-08-26T06:58:42.218Z,33.60
2022-08-26T07:03:57.583Z,33.50
2022-08-26T07:06:25.767Z,34.00
2022-08-26T07:09:01.217Z,33.60
2022-08-26T07:11:32.409Z,34.70
2022-08-26T07:14:00.230Z,34.10
2022-08-26T07:16:28.881Z,35.00
2022-08-26T07:18:57.463Z,33.90
2022-08-26T07:21:25.894Z,32.30
2022-08-26T07:23:58.720Z,32.20
2022-08-26T07:26:30.803Z,32.40
2022-08-26T07:28:59.406Z,32.50
2022-08-26T07:31:30.421Z,32.50
2022-08-26T07:34:00.007Z,32.40
2022-08-26T07:36:30.218Z,31.40
2022-08-26T07:38:57.851Z,31.50
2022-08-26T07:41:26.016Z,31.30
2022-08-26T07:43:54.777Z,32.40
2022-08-26T07:46:27.260Z,34.40
2022-08-26T07:48:58.690Z,35.30
2022-08-26T07:51:26.637Z,35.70
2022-08-26T07:53:54.524Z,35.20
2022-08-26T07:56:23.280Z,35.40
2022-08-26T07:58:52.092Z,35.70
2022-08-26T08:01:21.667Z,35.80
2022-08-26T08:03:51.687Z,36.00
2022-08-26T08:06:20.820Z,35.70
2022-08-26T08:08:51.661Z,35.60
2022-08-26T08:11:21.514Z,35.70
2022-08-26T08:13:56.075Z,36.30
2022-08-26T08:16:26.293Z,36.60
2022-08-26T08:18:54.221Z,36.20
2022-08-26T08:21:25.044Z,36.40
2022-08-26T08:23:54.053Z,36.70
2022-08-26T08:26:22.438Z,36.20
2022-08-26T08:28:50.998Z,36.30
2022-08-26T08:31:52.520Z,36.50
2022-08-26T08:34:11.646Z,36.40
2022-08-26T08:36:39.085Z,37.40
2022-08-26T08:39:07.134Z,37.60
2022-08-26T08:41:50.556Z,37.70
2022-08-26T08:44:21.589Z,37.60
2022-08-26T08:46:56.182Z,38.00
2022-08-26T08:49:26.014Z,37.90
2022-08-26T08:52:01.398Z,38.40
2022-08-26T08:54:30.811Z,38.40
2022-08-26T08:57:13.000Z,38.70
2022-08-26T08:59:52.061Z,38.90
2022-08-26T09:02:58.688Z,39.00
2022-08-26T09:05:35.881Z,39.00
2022-08-26T09:08:11.172Z,38.00
2022-08-26T09:10:52.320Z,38.50
2022-08-26T09:13:25.100Z,39.30
2022-08-26T09:16:15.848Z,39.00
2022-08-26T09:19:14.196Z,38.20
2022-08-26T09:21:41.545Z,36.30
2022-08-26T09:24:11.150Z,35.50
2022-08-26T09:26:43.591Z,34.90
2022-08-26T09:29:29.326Z,36.00
2022-08-26T09:35:00.300Z,37.50
2022-08-26T09:40:29.559Z,37.30
2022-08-26T09:43:09.966Z,36.00
2022-08-26T09:45:39.171Z,35.50
2022-08-26T09:48:08.580Z,36.10
2022-08-26T09:50:40.104Z,35.60
2022-08-26T09:53:16.283Z,36.00
2022-08-26T09:55:47.594Z,35.90
2022-08-26T09:58:33.971Z,36.40
2022-08-26T10:01:04.206Z,36.30
2022-08-26T10:03:35.956Z,36.80
2022-08-26T10:06:13.486Z,37.70
2022-08-26T10:08:47.597Z,37.60
2022-08-26T10:11:22.727Z,37.70
2022-08-26T10:13:56.721Z,37.40
2022-08-26T10:16:30.385Z,37.20
2022-08-26T10:19:18.974Z,37.30
2022-08-26T10:21:56.167Z,37.00
2022-08-26T10:24:31.453Z,37.20
2022-08-26T10:27:14.528Z,36.70
2022-08-26T10:29:46.683Z,37.20
2022-08-26T10:32:34.752Z,37.10
2022-08-26T10:35:06.496Z,36.50
2022-08-26T10:37:39.742Z,35.90
2022-08-26T10:40:16.255Z,36.20
2022-08-26T10:42:50.365Z,36.10
2022-08-26T10:45:22.018Z,36.90
2022-08-26T10:48:05.935Z,36.00
2022-08-26T10:50:38.014Z,36.80
2022-08-26T10:53:17.258Z,36.90
2022-08-26T10:56:18.596Z,36.90
2022-08-26T11:02:07.408Z,36.60
2022-08-26T11:05:01.951Z,36.40
2022-08-26T11:07:36.838Z,37.00
2022-08-26T11:10:12.261Z,37.00
2022-08-26T11:18:00.900Z,36.30
2022-08-26T11:20:41.805Z,34.40
2022-08-26T11:26:20.410Z,34.70
2022-08-26T11:29:04.480Z,35.90
2022-08-26T11:34:51.826Z,36.20
2022-08-26T11:39:57.034Z,37.00
2022-08-26T11:42:32.418Z,37.10
2022-08-26T11:45:03.520Z,36.30
2022-08-26T11:47:32.921Z,36.20
2022-08-26T11:50:26.627Z,36.30
2022-08-26T11:53:01.507Z,35.70
2022-08-26T11:55:33.492Z,35.00
2022-08-26T11:58:04.750Z,34.50
2022-08-26T12:00:37.686Z,33.50
2022-08-26T12:03:08.383Z,33.20
2022-08-26T12:05:43.450Z,33.30
2022-08-26T12:08:24.655Z,33.30
2022-08-26T12:11:06.336Z,32.80
2022-08-26T12:13:35.319Z,32.80
2022-08-26T12:16:06.555Z,32.70
2022-08-26T12:18:38.127Z,32.70
2022-08-26T12:21:19.044Z,32.00
2022-08-26T12:23:49.950Z,31.80
2022-08-26T12:26:36.078Z,31.80
2022-08-26T12:29:20.339Z,32.20
2022-08-26T12:32:09.386Z,32.30
2022-08-26T12:34:36.995Z,32.20
2022-08-26T12:37:04.363Z,32.00
2022-08-26T12:39:37.968Z,31.70
2022-08-26T12:42:38.542Z,31.40
2022-08-26T12:45:07.765Z,31.30
2022-08-26T12:47:42.714Z,31.10
2022-08-26T12:50:18.824Z,31.20
2022-08-26T12:55:52.773Z,31.10
2022-08-26T12:58:37.240Z,31.50
2022-08-26T13:03:45.349Z,31.50
2022-08-26T13:06:29.965Z,31.50
2022-08-26T13:09:06.514Z,31.90
2022-08-26T13:14:24.134Z,32.10
2022-08-26T13:16:53.367Z,31.90
2022-08-26T13:19:23.865Z,31.80
2022-08-26T13:21:56.767Z,32.10
2022-08-26T13:24:31.579Z,32.20
2022-08-26T13:26:59.013Z,32.10
2022-08-26T13:29:26.239Z,32.10
2022-08-26T13:31:53.648Z,32.00
2022-08-26T13:34:22.855Z,31.80
2022-08-26T13:36:54.111Z,31.60
2022-08-26T13:39:22.059Z,31.60
2022-08-26T13:41:49.927Z,31.50
2022-08-26T13:44:17.807Z,31.10
2022-08-26T13:49:17.658Z,30.80
2022-08-26T13:51:44.861Z,30.70
2022-08-26T13:54:12.095Z,30.90
2022-08-26T13:56:39.714Z,31.10
2022-08-26T13:59:06.976Z,31.20
2022-08-26T14:01:36.107Z,31.10
2022-08-26T14:04:03.722Z,30.90
2022-08-26T14:06:31.509Z,30.80
2022-08-26T14:08:59.098Z,30.80
2022-08-26T14:11:27.698Z,30.90
2022-08-26T14:13:54.889Z,30.40
2022-08-26T14:16:27.172Z,30.10
2022-08-26T14:18:54.859Z,29.70
2022-08-26T14:21:22.273Z,29.70
2022-08-26T14:23:49.584Z,29.70
2022-08-26T14:26:28.288Z,29.50
2022-08-26T14:28:59.569Z,29.50
2022-08-26T14:31:29.341Z,29.20
2022-08-26T14:34:00.235Z,28.90
2022-08-26T14:36:28.477Z,28.70
2022-08-26T14:39:00.249Z,28.50
2022-08-26T14:41:29.182Z,28.30
2022-08-26T14:44:01.446Z,28.00
2022-08-26T14:46:31.259Z,27.80
2022-08-26T14:49:01.709Z,27.30
2022-08-26T14:51:29.906Z,26.10
2022-08-26T14:54:12.146Z,23.70
2022-08-26T14:56:54.995Z,21.70
2022-08-26T14:59:25.631Z,20.40
2022-08-26T15:01:54.365Z,19.70
2022-08-26T15:04:23.148Z,19.30
2022-08-26T15:06:54.542Z,19.00
2022-08-26T15:09:22.837Z,18.90
2022-08-26T15:11:50.797Z,18.90
2022-08-26T15:14:20.084Z,19.10
2022-08-26T15:16:49.464Z,19.30
2022-08-26T15:19:17.724Z,19.60
2022-08-26T15:21:45.692Z,19.80
2022-08-26T15:24:14.740Z,19.90
2022-08-26T15:26:43.133Z,19.90
2022-08-26T15:29:10.599Z,20.10
2022-08-26T15:31:38.002Z,20.10
2022-08-26T15:34:10.992Z,20.40
2022-08-26T15:36:42.686Z,20.50
2022-08-26T15:39:10.554Z,20.40
2022-08-26T15:41:38.055Z,19.90
2022-08-26T15:44:07.482Z,19.80
2022-08-26T15:46:36.443Z,19.80
2022-08-26T15:49:06.431Z,19.80
2022-08-26T15:51:45.179Z,19.60
2022-08-26T15:54:15.967Z,19.60
2022-08-26T15:56:43.730Z,19.90
2022-08-26T15:59:11.986Z,19.80
